KSNK

Winston Field Airport

Snyder, Texas, USA
METAR KSNK 182335Z AUTO 13007KT 10SM SCT075 34/17 A2995 RMK AO2 T03380165
Observed Flight Rules
Aug-18 @ 23:35 UTC (9 minutes ago) Visual Flight Rules
Wind Visibility Clouds
130° at 7 knots 10 miles
  • Scattered at 7,500' AGL
Temperatures Readings
Current 34°C / 93°F
Dewpoint 17°C / 63°F
Humidity 36%
Altimeter 29.95" Hg
Pressure 1014 hPa
Elevation 741
METAR KSNK 182335Z AUTO 13007KT 10SM SCT075 34/17 A2995 RMK AO2 T03380165
Observed Flight Rules
Aug-18 @ 23:35 UTC
(9 minutes ago)
VFR
Wind Visibility
130° at 7 knots 10 miles
Clouds
  • Scattered at 7,500' AGL
Temperature Dewpoint
34°C / 93°F 17°C / 63°F
Humidity Altimeter Pressure
36% 29.95" Hg 1014 hPa